Flight Track Log - Related Links

Times and Time Zones

All times are in EST time to prevent confusion due to time zone crossing. See the SCX8700 flight status page for this flight to view local times or setup timezone preferences in your user account.

Time Position Orientation Groundspeed Altitude Reporting Facility
EST Latitude Longitude Course Direction KTS MPH feet Rate Location/Type
Mon 06:55:52 44.8167 -93.2167 153° Southeast 217 250 3,000  Level Minneapolis TRACON
Mon 06:57:00 44.7331 -93.1981 171° South 269 310 6,700 3,116 Climbing Minneapolis Center
Mon 06:58:01 44.6661 -93.1631 160° South 310 357 9,700 3,322 Climbing Minneapolis Center
Mon 06:59:01 44.5631 -93.1017 157° South 347 399 13,400 3,174 Climbing Minneapolis Center
Mon 07:00:02 44.4672 -93.0456 157° South 370 426 16,100 2,331 Climbing Minneapolis Center
Mon 07:01:00 44.1771 -92.8598 153° Southeast  Level FlightAware Approximate
Mon 07:01:02 44.3586 -92.9819 157° South 426 490 18,100  Level Minneapolis Center
Mon 07:02:03 44.2442 -92.9150 157° South 444 511 20,600 2,529 Climbing Minneapolis Center
Mon 07:03:03 44.1261 -92.8325 153° Southeast 470 541 23,200 2,450 Climbing Minneapolis Center
Mon 07:04:03 44.0047 -92.7489 154° Southeast 484 557 25,500 2,182 Climbing Minneapolis Center
Mon 07:05:04 43.8822 -92.6650 154° Southeast 490 564 27,600 1,934 Climbing Minneapolis Center
Mon 07:06:04 43.7514 -92.5950 159° South 498 573 29,400 1,636 Climbing Minneapolis Center
Mon 07:07:05 43.6183 -92.5711 173° South 489 563 30,900 1,686 Climbing Minneapolis Center
Mon 07:08:05 43.4856 -92.5475 173° South 488 562 32,800 953 Climbing Minneapolis Center
Mon 07:13:29 42.7384 -92.4274 173° South 493 567 37,000 683 Climbing FlightAware ADS-B (SBMG / MGF)
Mon 07:14:14 42.6348 -92.4111 173° South 492 566 37,000  Level FlightAware ADS-B (SBMG / MGF)
Mon 07:14:49 42.5601 -92.3941 171° South 504 580 37,000  Level FlightAware ADS-B (LPVM)
Mon 07:15:21 42.4912 -92.3629 162° South 517 595 37,000  Level FlightAware ADS-B (LPVM)
Mon 07:15:55 42.4098 -92.3181 158° South 517 595 37,000  Level FlightAware ADS-B (SBMG / MGF)
Mon 07:16:29 42.3390 -92.2792 158° South 516 594 37,000  Level FlightAware ADS-B (LPVM)
Mon 07:17:09 42.2488 -92.2301 158° South 516 594 37,000  Level FlightAware ADS-B (LPVM)
Mon 07:17:49 42.1672 -92.1856 158° South 514 592 37,000  Level FlightAware ADS-B (LPVM)
Mon 07:18:29 42.0724 -92.1343 158° South 513 590 37,000  Level FlightAware ADS-B (LPVM)
Mon 07:19:08 41.9852 -92.0871 158° South 513 590 37,000  Level FlightAware ADS-B (LPVM)
Mon 07:19:40 41.9169 -92.0502 158° South 513 590 37,000  Level FlightAware ADS-B (LPVM)
Mon 07:20:11 41.8513 -92.0148 158° South 515 593 37,000  Level FlightAware ADS-B (SBMG / MGF)
Mon 07:20:48 41.7828 -91.9686 153° Southeast 520 598 37,000  Level FlightAware ADS-B (LPVM)
Mon 07:21:31 41.6839 -91.8979 152° Southeast 520 598 37,000  Level FlightAware ADS-B (LPVM)
Mon 07:22:01 41.6140 -91.8483 152° Southeast 519 597 37,000  Level FlightAware ADS-B (LPVM)
Mon 07:22:34 41.5428 -91.7982 152° Southeast 518 596 37,000  Level FlightAware ADS-B (SBMG / MGF)
Mon 07:23:54 41.4934 -91.7635 152° Southeast 516 594 37,000  Level FlightAware ADS-B (SBMG / MGF)
Mon 07:25:50 41.2420 -91.5884 152° Southeast 513 590 37,000  Level FlightAware ADS-B (SBMG / MGF)
Mon 07:27:12 40.9736 -91.4033 152° Southeast 510 587 37,000  Level Chicago Center
Mon 07:28:13 40.8472 -91.3172 153° Southeast 511 588 37,000  Level Chicago Center
Mon 07:29:14 40.7158 -91.2253 152° Southeast 511 588 37,000  Level Chicago Center
Mon 07:30:15 40.5892 -91.1381 152° Southeast 513 590 37,000  Level Kansas City Center
Mon 07:31:13 40.4628 -91.0525 153° Southeast 513 590 37,000  Level Kansas City Center
Mon 07:32:16 40.3383 -90.9681 153° Southeast 512 589 37,000  Level Kansas City Center
Mon 07:33:17 40.2119 -90.8839 153° Southeast 512 589 37,000  Level Kansas City Center
Mon 07:34:16 40.0867 -90.8000 153° Southeast 511 588 37,000  Level Kansas City Center
Mon 07:35:18 39.9642 -90.7172 153° Southeast 504 580 37,000  Level Kansas City Center
Mon 07:36:18 39.8411 -90.6356 153° Southeast 502 578 37,000  Level Kansas City Center
Mon 07:37:19 39.7206 -90.5556 153° Southeast 498 573 37,000  Level Kansas City Center
Mon 07:38:20 39.5983 -90.4756 153° Southeast 497 572 37,000  Level Kansas City Center
Mon 07:39:22 39.4758 -90.3956 153° Southeast 494 568 37,000  Level Kansas City Center
Mon 07:40:20 39.3528 -90.3153 153° Southeast 494 568 37,000  Level Kansas City Center
Mon 07:41:23 39.2317 -90.2361 153° Southeast 494 568 37,000  Level Kansas City Center
Mon 07:42:24 39.0872 -90.1417 153° Southeast 488 562 37,000  Level Kansas City Center
Mon 07:43:25 38.9661 -90.0644 154° Southeast 486 559 37,000  Level Kansas City Center
Mon 07:44:26 38.8447 -89.9856 153° Southeast 486 559 37,000  Level Kansas City Center
Mon 07:45:27 38.7228 -89.9078 154° Southeast 486 559 37,000  Level Kansas City Center
Mon 07:46:26 38.6025 -89.8300 153° Southeast 486 559 37,000  Level Kansas City Center
Mon 07:47:28 38.4819 -89.7525 153° Southeast 485 558 37,000  Level Kansas City Center
Mon 07:48:29 38.3633 -89.6781 154° Southeast 480 552 37,000 198 Level Kansas City Center
Mon 07:49:29 38.2414 -89.5997 153° Southeast 488 562 37,400 500 Climbing Kansas City Center
Mon 07:50:29 38.1153 -89.5197 153° Southeast 500 575 38,000 774 Climbing Kansas City Center
Mon 07:51:33 37.9772 -89.4347 154° Southeast 509 586 39,000 1,008 Climbing Kansas City Center
Mon 07:52:34 37.8511 -89.3558 154° Southeast 507 583 40,100 807 Climbing Kansas City Center
Mon 07:53:32 37.7250 -89.2747 153° Southeast 506 582 40,600 443 Climbing Kansas City Center
Mon 07:54:36 37.5992 -89.1953 153° Southeast 506 582 41,000 194 Climbing Kansas City Center
Mon 07:55:36 37.4739 -89.1169 154° Southeast 505 581 41,000  Level Kansas City Center
Mon 07:56:37 37.3494 -89.0447 155° Southeast 499 574 41,000  Level Memphis Center
Mon 07:57:38 37.2253 -88.9697 154° Southeast 499 574 41,000  Level Memphis Center
Mon 07:58:39 37.1000 -88.8925 154° Southeast 499 574 41,000  Level Memphis Center
Mon 07:59:40 36.9761 -88.8172 154° Southeast 498 573 41,000  Level Memphis Center
Mon 08:00:41 36.8522 -88.7422 154° Southeast 493 567 41,000  Level Memphis Center
Mon 08:01:42 36.7289 -88.6675 154° Southeast 492 566 41,000  Level Memphis Center
Mon 08:02:44 36.6064 -88.5936 154° Southeast 490 564 41,000  Level Memphis Center
Mon 08:03:45 36.4594 -88.5053 154° Southeast 489 563 41,000  Level Memphis Center
Mon 08:04:46 36.3369 -88.4322 154° Southeast 488 562 41,000  Level Memphis Center
Mon 08:05:47 36.2133 -88.3592 155° Southeast 488 562 41,000  Level Memphis Center
Mon 08:06:48 36.0894 -88.2861 155° Southeast 488 562 41,000  Level Memphis Center
Mon 08:12:49 35.3467 -87.8506 155° Southeast 489 563 41,000  Level FlightAware ADS-B (KMDQ)
Mon 08:13:29 35.2673 -87.8046 155° Southeast 489 563 41,000  Level FlightAware ADS-B (KMDQ)
Mon 08:14:09 35.1853 -87.7571 155° Southeast 488 562 41,000  Level FlightAware ADS-B (KMDQ)
Mon 08:14:49 35.1005 -87.7082 155° Southeast 487 560 41,000  Level FlightAware ADS-B (KMDQ)
Mon 08:15:29 35.0315 -87.6685 155° Southeast 483 556 41,000  Level FlightAware ADS-B (KMDQ)
Mon 08:16:09 34.9393 -87.6156 155° Southeast 479 551 41,000  Level FlightAware ADS-B (KMDQ)
Mon 08:16:49 34.8597 -87.5699 155° Southeast 478 550 41,000  Level FlightAware ADS-B (KMDQ)
Mon 08:17:29 34.7815 -87.5252 155° Southeast 476 548 41,000  Level FlightAware ADS-B (KMDQ)
Mon 08:18:09 34.6994 -87.4785 155° Southeast 476 548 41,000  Level FlightAware ADS-B (KMDQ)
Mon 08:19:09 34.5810 -87.4111 155° Southeast 475 547 41,000  Level FlightAware ADS-B (KMDQ)
Mon 08:19:49 34.5022 -87.3664 155° Southeast 475 547 41,000  Level FlightAware ADS-B (KMDQ)
Mon 08:20:29 34.4215 -87.3206 155° Southeast 474 545 41,000  Level FlightAware ADS-B (KMDQ)
Mon 08:21:09 34.3425 -87.2761 155° Southeast 473 544 41,000  Level FlightAware ADS-B (KMDQ)
Mon 08:21:49 34.2632 -87.2313 155° Southeast 474 545 41,000  Level FlightAware ADS-B (KMDQ)
Mon 08:22:29 34.1826 -87.1860 155° Southeast 474 545 41,000  Level FlightAware ADS-B (KMDQ)
Mon 08:23:09 34.1134 -87.1470 155° Southeast 475 547 41,000  Level FlightAware ADS-B (KMDQ)
Mon 08:23:49 34.0266 -87.0984 155° Southeast 474 545 41,000  Level FlightAware ADS-B (KMDQ)
Mon 08:24:29 33.9821 -87.0735 155° Southeast 475 547 41,000  Level FlightAware ADS-B (KMDQ)
Mon 08:25:09 33.8680 -87.0098 155° Southeast 475 547 41,000  Level FlightAware ADS-B (KMDQ)
Mon 08:25:49 33.7910 -86.9670 155° Southeast 475 547 41,000  Level FlightAware ADS-B (KMDQ)
Mon 08:26:27 33.7125 -86.9231 155° Southeast 473 544 41,000  Level Atlanta Center
Mon 08:27:27 33.5956 -86.8394 149° Southeast 473 544 41,000  Level Atlanta Center
Mon 08:28:27 33.4869 -86.7414 143° Southeast 485 558 41,000  Level Atlanta Center
Mon 08:29:27 33.3742 -86.6506 146° Southeast 490 564 41,000  Level Atlanta Center
Mon 08:30:27 33.2778 -86.5633 143° Southeast 490 564 41,000  Level Atlanta Center
Mon 08:31:27 33.1669 -86.4708 145° Southeast 490 564 41,000  Level Atlanta Center
Mon 08:32:27 33.0561 -86.3783 145° Southeast 490 564 41,000  Level Atlanta Center
Mon 08:33:27 32.9450 -86.2864 145° Southeast 490 564 41,000  Level Atlanta Center
Mon 08:34:27 32.8339 -86.1969 146° Southeast 490 564 41,000  Level Atlanta Center
Mon 08:35:27 32.7228 -86.1053 145° Southeast 490 564 41,000  Level Atlanta Center
Mon 08:36:27 32.6117 -86.0142 145° Southeast 485 558 41,000  Level Atlanta Center
Mon 08:37:27 32.4881 -85.9153 146° Southeast 490 564 41,000  Level Atlanta Center
Mon 08:38:27 32.3767 -85.8244 145° Southeast 490 564 41,000  Level Atlanta Center
Mon 08:39:27 32.2631 -85.7311 145° Southeast 490 564 41,000  Level Atlanta Center
Mon 08:40:27 32.1517 -85.6383 145° Southeast 490 564 41,000  Level Atlanta Center
Mon 08:43:30 31.8167 -85.3742 146° Southeast 496 571 41,000  Level Jacksonville Center
Mon 08:44:30 31.7036 -85.2833 146° Southeast 496 571 41,000  Level Jacksonville Center
Mon 08:45:30 31.5925 -85.1950 146° Southeast 496 571 41,000  Level Jacksonville Center
Mon 08:46:30 31.4853 -85.1094 146° Southeast 490 564 41,000  Level Jacksonville Center
Mon 08:47:30 31.3761 -85.0217 146° Southeast 484 557 41,000  Level Jacksonville Center
Mon 08:48:30 31.2669 -84.9342 146° Southeast 477 549 41,000  Level Jacksonville Center
Mon 08:49:30 31.1575 -84.8494 146° Southeast 477 549 41,000  Level Jacksonville Center
Mon 08:50:30 31.0461 -84.7719 149° Southeast 477 549 41,000  Level Jacksonville Center
Mon 08:51:30 30.9344 -84.6922 149° Southeast 472 543 41,000 -387 Level Jacksonville Center
Mon 08:56:58 30.3144 -84.2428 149° Southeast 469 540 38,500 -531 Descending FlightAware ADS-B (KONZ)
Mon 08:57:43 30.2472 -84.1950 148° Southeast 465 535 37,700 -1,024 Descending FlightAware ADS-B (KONZ)
Mon 08:58:20 30.1730 -84.1426 149° Southeast 465 535 37,100 -609 Descending FlightAware ADS-B (KONZ)
Mon 08:58:52 30.1104 -84.0984 149° Southeast 464 534 37,000 -75 Descending FlightAware ADS-B (KONZ)
Mon 08:59:40 30.0174 -84.0328 149° Southeast 463 533 37,000  Level FlightAware ADS-B (KONZ)
Mon 09:00:30 29.9300 -83.9758 149° Southeast 466 536 37,000  Level Jacksonville Center
Mon 09:01:30 29.8200 -83.8933 147° Southeast 466 536 37,000 -100 Level Jacksonville Center
Mon 09:02:30 29.7100 -83.8228 151° Southeast 466 536 36,800 -1,350 Descending Jacksonville Center
Mon 09:03:30 29.5956 -83.7525 152° Southeast 461 531 34,300 -2,350 Descending Jacksonville Center
Mon 09:04:30 29.4833 -83.6800 151° Southeast 461 531 32,100 -2,200 Descending Jacksonville Center
Mon 09:05:30 29.3753 -83.6100 151° Southeast 455 524 29,900 -2,150 Descending Jacksonville Center
Mon 09:06:30 29.2711 -83.5425 151° Southeast 450 518 27,800 -1,600 Descending Jacksonville Center
Mon 09:07:30 29.1692 -83.4775 151° Southeast 438 504 26,700 -1,050 Descending Jacksonville Center
Mon 09:08:30 29.0672 -83.4153 152° Southeast 428 493 25,700 -1,350 Descending Jacksonville Center
Mon 09:09:30 28.9714 -83.3531 150° Southeast 413 475 24,000 -1,800 Descending Jacksonville Center
Mon 09:10:30 28.8756 -83.2933 151° Southeast 406 467 22,100 -1,862 Descending Jacksonville Center
Mon 09:12:53 28.6500 -83.1500 151° Southeast 371 427 17,700 -1,892 Descending Tampa TRACON
Mon 09:13:53 28.5667 -83.1000 152° Southeast 364 419 15,700 -1,900 Descending Tampa TRACON
Mon 09:14:53 28.4833 -83.0333 145° Southeast 357 411 13,900 -1,550 Descending Tampa TRACON
Mon 09:15:53 28.4000 -82.9833 152° Southeast 342 394 12,600 -1,476 Descending Tampa TRACON
Mon 09:16:59 28.3167 -82.9333 152° Southeast 307 353 10,800 -1,500 Descending Tampa TRACON
Mon 09:18:05 28.2667 -82.8500 124° Southeast 308 354 9,300 -1,350 Descending Tampa TRACON
Mon 09:18:59 28.2833 -82.7667 77° East 297 342 8,100 -1,368 Descending Tampa TRACON
Mon 09:19:59 28.2667 -82.6667 101° East 287 330 6,700 -1,619 Descending Tampa TRACON
Mon 09:21:05 28.2500 -82.5833 103° East 276 318 4,700 -1,421 Descending Tampa TRACON
Mon 09:21:53 28.2167 -82.5333 127° Southeast 246 283 4,000 -936 Descending Tampa TRACON
Mon 09:22:54 28.1500 -82.5333 180° South 225 259 3,000 -1,041 Descending Tampa TRACON
Mon 09:23:54 28.0833 -82.5333 180° South 224 258 1,900 -1,000 Descending Tampa TRACON
Mon 09:24:54 28.0333 -82.5333 180° South 157 181 1,000 -900 Descending Tampa TRACON
Mon 09:26:00 27.9755 -82.5332 161° South  Level Estimated
Mon 09:33:00 27.9755 -82.5332 161° South  Level Estimated
Mon 09:34:00 27.9755 -82.5332 161° South  Level Estimated
Mon 09:35:00 27.9755 -82.5332 161° South  Level Estimated

Login

Don't have an account? Register now (free) for customized features, flight alerts, and more!